sensor_id;sensor_type;location;lat;lon;timestamp;pressure;altitude;pressure_sealevel;temperature;humidity
62544;BME280;48597;49.030;1.822;2023-01-31T00:00:00;102069.22;;;19.69;35.93
62544;BME280;48597;49.030;1.822;2023-01-31T00:02:26;102068.38;;;19.72;35.83
62544;BME280;48597;49.030;1.822;2023-01-31T00:04:51;102063.84;;;19.74;35.72
62544;BME280;48597;49.030;1.822;2023-01-31T00:07:17;102060.97;;;19.74;35.69
62544;BME280;48597;49.030;1.822;2023-01-31T00:09:42;102060.97;;;19.74;35.72
62544;BME280;48597;49.030;1.822;2023-01-31T00:12:07;102049.94;;;19.76;35.72
62544;BME280;48597;49.030;1.822;2023-01-31T00:14:32;102058.06;;;19.85;35.58
62544;BME280;48597;49.030;1.822;2023-01-31T00:16:58;102072.38;;;19.81;35.68
62544;BME280;48597;49.030;1.822;2023-01-31T00:19:23;102070.75;;;19.80;35.74
62544;BME280;48597;49.030;1.822;2023-01-31T00:21:48;102075.66;;;19.80;35.85
62544;BME280;48597;49.030;1.822;2023-01-31T00:24:14;102073.59;;;19.80;35.73
62544;BME280;48597;49.030;1.822;2023-01-31T00:26:39;102073.22;;;19.75;35.85
62544;BME280;48597;49.030;1.822;2023-01-31T00:29:06;102074.88;;;19.76;35.84
62544;BME280;48597;49.030;1.822;2023-01-31T00:31:32;102071.59;;;19.74;35.79
62544;BME280;48597;49.030;1.822;2023-01-31T00:33:58;102074.09;;;19.72;35.78
62544;BME280;48597;49.030;1.822;2023-01-31T00:36:25;102073.69;;;19.70;35.84
62544;BME280;48597;49.030;1.822;2023-01-31T00:38:51;102065.53;;;19.68;35.93
62544;BME280;48597;49.030;1.822;2023-01-31T00:41:18;102060.63;;;19.69;35.73
62544;BME280;48597;49.030;1.822;2023-01-31T00:43:43;102063.09;;;19.67;35.77
62544;BME280;48597;49.030;1.822;2023-01-31T00:46:08;102053.69;;;19.66;35.75
62544;BME280;48597;49.030;1.822;2023-01-31T00:48:34;102059.00;;;19.68;35.67
62544;BME280;48597;49.030;1.822;2023-01-31T00:51:00;102053.69;;;19.70;35.73
62544;BME280;48597;49.030;1.822;2023-01-31T00:53:25;102047.97;;;19.70;35.63
62544;BME280;48597;49.030;1.822;2023-01-31T00:55:51;102035.69;;;19.69;35.71
62544;BME280;48597;49.030;1.822;2023-01-31T00:58:17;102043.88;;;19.67;35.58
62544;BME280;48597;49.030;1.822;2023-01-31T01:00:42;102035.72;;;19.66;35.60
62544;BME280;48597;49.030;1.822;2023-01-31T01:03:08;102037.31;;;19.70;35.70
62544;BME280;48597;49.030;1.822;2023-01-31T01:05:33;102054.50;;;19.70;35.54
62544;BME280;48597;49.030;1.822;2023-01-31T01:07:58;102045.84;;;19.74;35.62
62544;BME280;48597;49.030;1.822;2023-01-31T01:10:24;102059.41;;;19.70;35.61
62544;BME280;48597;49.030;1.822;2023-01-31T01:12:49;102057.75;;;19.72;35.64
62544;BME280;48597;49.030;1.822;2023-01-31T01:15:14;102060.13;;;19.77;35.50
62544;BME280;48597;49.030;1.822;2023-01-31T01:17:39;102049.50;;;19.81;35.50
62544;BME280;48597;49.030;1.822;2023-01-31T01:20:05;102052.34;;;19.81;35.51
62544;BME280;48597;49.030;1.822;2023-01-31T01:22:30;102052.38;;;19.78;35.49
62544;BME280;48597;49.030;1.822;2023-01-31T01:24:56;102050.69;;;19.84;35.43
62544;BME280;48597;49.030;1.822;2023-01-31T01:27:21;102045.84;;;19.77;35.50
62544;BME280;48597;49.030;1.822;2023-01-31T01:29:46;102046.25;;;19.76;35.43
62544;BME280;48597;49.030;1.822;2023-01-31T01:32:11;102044.59;;;19.78;35.45
62544;BME280;48597;49.030;1.822;2023-01-31T01:34:36;102038.84;;;19.82;35.50
62544;BME280;48597;49.030;1.822;2023-01-31T01:37:02;102043.75;;;19.85;35.40
62544;BME280;48597;49.030;1.822;2023-01-31T01:39:35;102040.09;;;19.81;35.41
62544;BME280;48597;49.030;1.822;2023-01-31T01:42:01;102038.47;;;19.80;35.44
62544;BME280;48597;49.030;1.822;2023-01-31T01:49:42;102040.53;;;19.76;35.43
62544;BME280;48597;49.030;1.822;2023-01-31T01:52:08;102030.31;;;19.75;35.33
62544;BME280;48597;49.030;1.822;2023-01-31T01:54:35;102025.03;;;19.73;35.46
62544;BME280;48597;49.030;1.822;2023-01-31T01:57:02;102027.91;;;19.73;35.44
62544;BME280;48597;49.030;1.822;2023-01-31T01:59:48;102020.97;;;19.71;35.40
62544;BME280;48597;49.030;1.822;2023-01-31T02:02:15;102022.22;;;19.70;35.37
62544;BME280;48597;49.030;1.822;2023-01-31T02:04:41;102017.72;;;19.69;35.23
62544;BME280;48597;49.030;1.822;2023-01-31T02:07:08;102010.78;;;19.70;35.31
62544;BME280;48597;49.030;1.822;2023-01-31T02:12:11;102029.16;;;19.69;35.39
62544;BME280;48597;49.030;1.822;2023-01-31T02:14:37;102027.50;;;19.71;35.30
62544;BME280;48597;49.030;1.822;2023-01-31T02:17:02;102031.56;;;19.74;35.27
62544;BME280;48597;49.030;1.822;2023-01-31T02:27:33;102011.06;;;19.82;35.13
62544;BME280;48597;49.030;1.822;2023-01-31T02:43:10;102007.78;;;19.84;35.12
62544;BME280;48597;49.030;1.822;2023-01-31T02:48:20;102020.78;;;19.88;35.12
62544;BME280;48597;49.030;1.822;2023-01-31T02:50:53;102022.47;;;19.86;35.05
62544;BME280;48597;49.030;1.822;2023-01-31T02:53:23;102021.28;;;19.83;35.04
62544;BME280;48597;49.030;1.822;2023-01-31T02:55:57;102028.63;;;19.84;35.03
62544;BME280;48597;49.030;1.822;2023-01-31T02:59:04;102033.56;;;19.80;34.98
62544;BME280;48597;49.030;1.822;2023-01-31T03:01:28;102036.44;;;19.77;35.09
62544;BME280;48597;49.030;1.822;2023-01-31T03:04:08;102038.47;;;19.80;35.18
62544;BME280;48597;49.030;1.822;2023-01-31T03:09:01;102038.47;;;19.76;35.09
62544;BME280;48597;49.030;1.822;2023-01-31T03:11:37;102036.03;;;19.75;34.95
62544;BME280;48597;49.030;1.822;2023-01-31T03:16:39;102040.13;;;19.74;34.96
62544;BME280;48597;49.030;1.822;2023-01-31T03:19:37;102034.41;;;19.74;34.98
62544;BME280;48597;49.030;1.822;2023-01-31T03:22:06;102036.91;;;19.72;35.06
62544;BME280;48597;49.030;1.822;2023-01-31T03:24:34;102040.13;;;19.74;34.92
62544;BME280;48597;49.030;1.822;2023-01-31T03:27:00;102043.00;;;19.74;34.96
62544;BME280;48597;49.030;1.822;2023-01-31T03:29:28;102050.34;;;19.75;34.86
62544;BME280;48597;49.030;1.822;2023-01-31T03:32:06;102039.31;;;19.77;34.95
62544;BME280;48597;49.030;1.822;2023-01-31T03:34:33;102039.72;;;19.75;34.92
62544;BME280;48597;49.030;1.822;2023-01-31T03:39:41;102054.41;;;19.77;34.93
62544;BME280;48597;49.030;1.822;2023-01-31T03:47:23;102041.69;;;19.85;34.78
62544;BME280;48597;49.030;1.822;2023-01-31T03:49:50;102043.75;;;19.85;34.78
62544;BME280;48597;49.030;1.822;2023-01-31T03:52:17;102041.31;;;19.83;34.66
62544;BME280;48597;49.030;1.822;2023-01-31T03:54:48;102040.41;;;19.90;34.71
62544;BME280;48597;49.030;1.822;2023-01-31T03:57:21;102037.16;;;19.88;34.77
62544;BME280;48597;49.030;1.822;2023-01-31T03:59:48;102038.34;;;19.90;34.72
62544;BME280;48597;49.030;1.822;2023-01-31T04:02:18;102035.91;;;19.89;34.78
62544;BME280;48597;49.030;1.822;2023-01-31T04:04:46;102039.19;;;19.91;34.75
62544;BME280;48597;49.030;1.822;2023-01-31T04:07:14;102037.16;;;19.88;34.70
62544;BME280;48597;49.030;1.822;2023-01-31T04:09:39;102034.72;;;19.86;34.72
62544;BME280;48597;49.030;1.822;2023-01-31T04:12:04;102029.03;;;19.83;34.78
62544;BME280;48597;49.030;1.822;2023-01-31T04:14:30;102021.28;;;19.83;34.93
62544;BME280;48597;49.030;1.822;2023-01-31T04:16:56;102029.03;;;19.83;34.75
62544;BME280;48597;49.030;1.822;2023-01-31T04:19:21;102025.78;;;19.81;34.75
62544;BME280;48597;49.030;1.822;2023-01-31T04:21:47;102016.81;;;19.79;34.79
62544;BME280;48597;49.030;1.822;2023-01-31T04:24:12;102016.00;;;19.78;34.76
62544;BME280;48597;49.030;1.822;2023-01-31T04:26:37;102027.84;;;19.77;34.85
62544;BME280;48597;49.030;1.822;2023-01-31T04:29:03;102036.41;;;19.80;34.74
62544;BME280;48597;49.030;1.822;2023-01-31T04:31:28;102028.25;;;19.79;34.79
62544;BME280;48597;49.030;1.822;2023-01-31T04:33:54;102037.66;;;19.79;34.79
62544;BME280;48597;49.030;1.822;2023-01-31T04:36:22;102033.56;;;19.77;34.68
62544;BME280;48597;49.030;1.822;2023-01-31T04:38:47;102028.25;;;19.79;34.68
62544;BME280;48597;49.030;1.822;2023-01-31T04:41:12;102030.69;;;19.80;34.66
62544;BME280;48597;49.030;1.822;2023-01-31T04:43:37;102031.50;;;19.81;34.71
62544;BME280;48597;49.030;1.822;2023-01-31T04:46:03;102027.84;;;19.80;34.66
62544;BME280;48597;49.030;1.822;2023-01-31T04:48:28;102024.13;;;19.83;34.62
62544;BME280;48597;49.030;1.822;2023-01-31T04:50:54;102018.00;;;19.85;34.59
62544;BME280;48597;49.030;1.822;2023-01-31T04:53:19;102014.69;;;19.86;34.65
62544;BME280;48597;49.030;1.822;2023-01-31T04:55:46;102017.59;;;19.83;34.63
62544;BME280;48597;49.030;1.822;2023-01-31T04:58:11;102007.38;;;19.85;34.58
62544;BME280;48597;49.030;1.822;2023-01-31T05:00:36;102018.34;;;19.87;34.52
62544;BME280;48597;49.030;1.822;2023-01-31T05:03:01;102026.50;;;19.92;34.63
62544;BME280;48597;49.030;1.822;2023-01-31T05:05:27;102027.31;;;19.92;34.63
62544;BME280;48597;49.030;1.822;2023-01-31T05:07:52;102028.56;;;19.88;34.63
62544;BME280;48597;49.030;1.822;2023-01-31T05:10:17;102028.13;;;19.93;34.74
62544;BME280;48597;49.030;1.822;2023-01-31T05:12:43;102018.31;;;19.94;34.56
62544;BME280;48597;49.030;1.822;2023-01-31T05:15:08;102019.09;;;19.98;34.55
62544;BME280;48597;49.030;1.822;2023-01-31T05:17:35;102024.00;;;19.97;34.58
62544;BME280;48597;49.030;1.822;2023-01-31T05:20:00;102022.38;;;19.96;34.65
62544;BME280;48597;49.030;1.822;2023-01-31T05:22:26;102015.84;;;19.96;34.47
62544;BME280;48597;49.030;1.822;2023-01-31T05:24:51;102018.28;;;19.97;34.63
62544;BME280;48597;49.030;1.822;2023-01-31T05:27:17;102012.97;;;19.96;34.49
62544;BME280;48597;49.030;1.822;2023-01-31T05:29:43;102002.38;;;19.93;34.68
62544;BME280;48597;49.030;1.822;2023-01-31T05:32:09;102006.88;;;19.90;34.60
62544;BME280;48597;49.030;1.822;2023-01-31T05:34:34;102004.44;;;19.89;34.61
62544;BME280;48597;49.030;1.822;2023-01-31T05:36:59;102001.19;;;19.87;34.63
62544;BME280;48597;49.030;1.822;2023-01-31T05:39:25;102003.63;;;19.88;34.51
62544;BME280;48597;49.030;1.822;2023-01-31T05:41:50;102006.88;;;19.90;34.52
62544;BME280;48597;49.030;1.822;2023-01-31T05:44:16;102005.25;;;19.89;34.47
62544;BME280;48597;49.030;1.822;2023-01-31T05:46:43;102004.88;;;19.87;34.61
62544;BME280;48597;49.030;1.822;2023-01-31T05:49:09;101997.47;;;19.90;34.43
62544;BME280;48597;49.030;1.822;2023-01-31T05:51:34;101999.53;;;19.89;34.53
62544;BME280;48597;49.030;1.822;2023-01-31T05:53:59;102001.97;;;19.91;34.54
62544;BME280;48597;49.030;1.822;2023-01-31T05:56:25;101993.00;;;19.89;34.42
62544;BME280;48597;49.030;1.822;2023-01-31T05:58:50;101990.53;;;19.91;34.49
62544;BME280;48597;49.030;1.822;2023-01-31T06:01:19;102002.38;;;19.93;34.44
62544;BME280;48597;49.030;1.822;2023-01-31T06:03:45;102011.38;;;19.91;34.47
62544;BME280;48597;49.030;1.822;2023-01-31T06:06:10;102012.19;;;19.92;34.51
62544;BME280;48597;49.030;1.822;2023-01-31T06:08:35;102010.13;;;19.96;34.42
62544;BME280;48597;49.030;1.822;2023-01-31T06:11:01;102021.13;;;19.97;34.47
62544;BME280;48597;49.030;1.822;2023-01-31T06:13:26;102021.13;;;19.97;34.42
62544;BME280;48597;49.030;1.822;2023-01-31T06:15:52;102024.81;;;19.98;34.49
62544;BME280;48597;49.030;1.822;2023-01-31T06:18:17;102037.09;;;19.95;34.48
62544;BME280;48597;49.030;1.822;2023-01-31T06:20:42;102033.03;;;19.92;34.59
62544;BME280;48597;49.030;1.822;2023-01-31T06:23:07;102033.84;;;19.93;34.46
62544;BME280;48597;49.030;1.822;2023-01-31T06:25:33;102034.25;;;19.91;34.61
62544;BME280;48597;49.030;1.822;2023-01-31T06:27:58;102033.06;;;19.89;34.60
62544;BME280;48597;49.030;1.822;2023-01-31T06:30:23;102022.47;;;19.86;34.65
62544;BME280;48597;49.030;1.822;2023-01-31T06:32:48;102033.47;;;19.87;34.57
62544;BME280;48597;49.030;1.822;2023-01-31T06:35:14;102022.50;;;19.82;34.65
62544;BME280;48597;49.030;1.822;2023-01-31T06:37:40;102028.66;;;19.81;34.50
62544;BME280;48597;49.030;1.822;2023-01-31T06:40:05;102022.09;;;19.80;34.57
62544;BME280;48597;49.030;1.822;2023-01-31T06:42:31;102022.53;;;19.79;34.61
62544;BME280;48597;49.030;1.822;2023-01-31T06:44:56;102023.75;;;19.78;34.61
62544;BME280;48597;49.030;1.822;2023-01-31T06:47:21;102018.84;;;19.78;34.65
62544;BME280;48597;49.030;1.822;2023-01-31T06:49:46;102024.16;;;19.80;34.68
62544;BME280;48597;49.030;1.822;2023-01-31T06:52:12;102022.53;;;19.79;34.54
62544;BME280;48597;49.030;1.822;2023-01-31T06:54:37;102030.69;;;19.80;34.69
62544;BME280;48597;49.030;1.822;2023-01-31T06:57:02;102023.75;;;19.81;34.59
62544;BME280;48597;49.030;1.822;2023-01-31T06:59:27;102024.16;;;19.80;34.44
62544;BME280;48597;49.030;1.822;2023-01-31T07:01:53;102034.78;;;19.79;34.64
62544;BME280;48597;49.030;1.822;2023-01-31T07:04:18;102029.47;;;19.81;34.52
62544;BME280;48597;49.030;1.822;2023-01-31T07:06:43;102025.78;;;19.81;34.59
62544;BME280;48597;49.030;1.822;2023-01-31T07:09:09;102031.50;;;19.81;34.71
62544;BME280;48597;49.030;1.822;2023-01-31T07:11:36;102020.47;;;19.83;34.65
62544;BME280;48597;49.030;1.822;2023-01-31T07:14:01;102028.19;;;19.86;34.46
62544;BME280;48597;49.030;1.822;2023-01-31T07:16:26;102028.56;;;19.88;34.68
62544;BME280;48597;49.030;1.822;2023-01-31T07:18:52;102031.47;;;19.84;34.62
62544;BME280;48597;49.030;1.822;2023-01-31T07:21:17;102023.31;;;19.83;34.53
62544;BME280;48597;49.030;1.822;2023-01-31T07:23:42;102029.38;;;19.88;34.64
62544;BME280;48597;49.030;1.822;2023-01-31T07:26:09;102031.44;;;19.88;34.65
62544;BME280;48597;49.030;1.822;2023-01-31T07:28:34;102020.84;;;19.85;34.66
62544;BME280;48597;49.030;1.822;2023-01-31T07:31:03;102026.56;;;19.85;34.57
62544;BME280;48597;49.030;1.822;2023-01-31T07:33:29;102030.69;;;19.80;34.71
62544;BME280;48597;49.030;1.822;2023-01-31T07:35:54;102031.13;;;19.79;34.79
62544;BME280;48597;49.030;1.822;2023-01-31T07:38:20;102033.97;;;19.79;34.76
62544;BME280;48597;49.030;1.822;2023-01-31T07:40:45;102038.09;;;19.74;34.69
62544;BME280;48597;49.030;1.822;2023-01-31T07:43:10;102043.00;;;19.74;34.69
62544;BME280;48597;49.030;1.822;2023-01-31T07:45:35;102047.94;;;19.73;34.90
62544;BME280;48597;49.030;1.822;2023-01-31T07:48:02;102041.00;;;19.71;34.90
62544;BME280;48597;49.030;1.822;2023-01-31T07:50:28;102050.81;;;19.70;34.83
62544;BME280;48597;49.030;1.822;2023-01-31T07:52:53;102034.06;;;19.68;34.98
62544;BME280;48597;49.030;1.822;2023-01-31T07:55:18;102033.25;;;19.68;34.85
62544;BME280;48597;49.030;1.822;2023-01-31T07:57:43;102047.16;;;19.66;34.76
62544;BME280;48597;49.030;1.822;2023-01-31T08:00:09;102052.53;;;19.60;34.81
62544;BME280;48597;49.030;1.822;2023-01-31T08:02:54;102050.91;;;19.59;35.09
62544;BME280;48597;49.030;1.822;2023-01-31T08:05:38;102051.75;;;19.56;35.32
62544;BME280;48597;49.030;1.822;2023-01-31T08:08:03;102049.28;;;19.54;35.37
62544;BME280;48597;49.030;1.822;2023-01-31T08:10:35;102046.47;;;19.51;35.56
62544;BME280;48597;49.030;1.822;2023-01-31T08:13:00;102044.84;;;19.50;35.90
62544;BME280;48597;49.030;1.822;2023-01-31T08:15:25;102040.75;;;19.47;35.76
62544;BME280;48597;49.030;1.822;2023-01-31T08:17:50;102047.31;;;19.44;35.75
62544;BME280;48597;49.030;1.822;2023-01-31T08:20:16;102040.38;;;19.42;35.53
62544;BME280;48597;49.030;1.822;2023-01-31T08:22:42;102048.97;;;19.42;35.72
62544;BME280;48597;49.030;1.822;2023-01-31T08:25:08;102044.47;;;19.41;35.74
62544;BME280;48597;49.030;1.822;2023-01-31T08:27:34;102053.47;;;19.39;35.89
62544;BME280;48597;49.030;1.822;2023-01-31T08:29:59;102061.22;;;19.39;36.08
62544;BME280;48597;49.030;1.822;2023-01-31T08:32:24;102059.59;;;19.38;36.07
62544;BME280;48597;49.030;1.822;2023-01-31T08:34:49;102070.22;;;19.37;36.15
62544;BME280;48597;49.030;1.822;2023-01-31T08:37:15;102070.22;;;19.37;35.86
62544;BME280;48597;49.030;1.822;2023-01-31T08:39:40;102058.78;;;19.37;36.02
62544;BME280;48597;49.030;1.822;2023-01-31T08:42:05;102057.97;;;19.37;35.60
62544;BME280;48597;49.030;1.822;2023-01-31T08:44:31;102061.69;;;19.34;35.61
62544;BME280;48597;49.030;1.822;2023-01-31T08:46:56;102067.00;;;19.32;35.75
62544;BME280;48597;49.030;1.822;2023-01-31T08:49:24;102072.72;;;19.32;35.75
62544;BME280;48597;49.030;1.822;2023-01-31T08:51:49;102075.19;;;19.30;35.83
62544;BME280;48597;49.030;1.822;2023-01-31T08:54:15;102074.38;;;19.29;35.75
62544;BME280;48597;49.030;1.822;2023-01-31T08:56:40;102065.38;;;19.27;35.70
62544;BME280;48597;49.030;1.822;2023-01-31T08:59:05;102076.81;;;19.27;35.82
62544;BME280;48597;49.030;1.822;2023-01-31T09:01:30;102063.75;;;19.26;35.72
62544;BME280;48597;49.030;1.822;2023-01-31T09:03:56;102077.63;;;19.27;35.84
62544;BME280;48597;49.030;1.822;2023-01-31T09:06:22;102082.94;;;19.25;35.82
62544;BME280;48597;49.030;1.822;2023-01-31T09:08:48;102076.00;;;19.26;35.90
62544;BME280;48597;49.030;1.822;2023-01-31T09:11:13;102072.34;;;19.26;35.99
62544;BME280;48597;49.030;1.822;2023-01-31T09:13:43;102070.28;;;19.26;36.07
62544;BME280;48597;49.030;1.822;2023-01-31T09:16:10;102073.16;;;19.26;36.04
62544;BME280;48597;49.030;1.822;2023-01-31T09:18:36;102071.09;;;19.27;36.05
62544;BME280;48597;49.030;1.822;2023-01-31T09:21:05;102072.34;;;19.26;35.98
62544;BME280;48597;49.030;1.822;2023-01-31T09:23:32;102077.63;;;19.27;36.06
62544;BME280;48597;49.030;1.822;2023-01-31T09:25:57;102081.72;;;19.26;36.12
62544;BME280;48597;49.030;1.822;2023-01-31T09:28:25;102095.59;;;19.28;36.07
62544;BME280;48597;49.030;1.822;2023-01-31T09:30:51;102094.78;;;19.27;36.05
62544;BME280;48597;49.030;1.822;2023-01-31T09:33:19;102098.47;;;19.28;36.26
62544;BME280;48597;49.030;1.822;2023-01-31T09:35:58;102093.97;;;19.27;36.21
62544;BME280;48597;49.030;1.822;2023-01-31T09:38:24;102092.34;;;19.26;36.33
62544;BME280;48597;49.030;1.822;2023-01-31T09:40:49;102108.25;;;19.27;36.34
62544;BME280;48597;49.030;1.822;2023-01-31T09:43:15;102105.41;;;19.27;36.25
62544;BME280;48597;49.030;1.822;2023-01-31T09:45:42;102107.03;;;19.28;36.28
62544;BME280;48597;49.030;1.822;2023-01-31T09:48:08;102108.25;;;19.27;36.35
62544;BME280;48597;49.030;1.822;2023-01-31T09:50:39;102105.41;;;19.27;36.26
62544;BME280;48597;49.030;1.822;2023-01-31T09:53:08;102111.13;;;19.27;36.09
62544;BME280;48597;49.030;1.822;2023-01-31T09:58:16;102105.41;;;19.27;36.40
62544;BME280;48597;49.030;1.822;2023-01-31T10:00:51;102105.41;;;19.27;36.42
62544;BME280;48597;49.030;1.822;2023-01-31T10:08:37;102120.13;;;19.25;36.23
62544;BME280;48597;49.030;1.822;2023-01-31T10:11:05;102113.16;;;19.26;36.58
62544;BME280;48597;49.030;1.822;2023-01-31T10:13:33;102112.34;;;19.26;36.26
62544;BME280;48597;49.030;1.822;2023-01-31T10:18:32;102095.19;;;19.26;36.14
62544;BME280;48597;49.030;1.822;2023-01-31T10:21:04;102113.16;;;19.26;36.21
62544;BME280;48597;49.030;1.822;2023-01-31T10:26:18;102098.88;;;19.26;36.52
62544;BME280;48597;49.030;1.822;2023-01-31T10:31:22;102095.19;;;19.30;36.31
62544;BME280;48597;49.030;1.822;2023-01-31T10:34:04;102101.72;;;19.30;36.29
62544;BME280;48597;49.030;1.822;2023-01-31T10:36:35;102098.88;;;19.30;36.32
62544;BME280;48597;49.030;1.822;2023-01-31T10:39:16;102094.78;;;19.31;36.36
62544;BME280;48597;49.030;1.822;2023-01-31T10:44:30;102094.38;;;19.33;36.38
62544;BME280;48597;49.030;1.822;2023-01-31T10:46:58;102083.75;;;19.33;36.44
62544;BME280;48597;49.030;1.822;2023-01-31T10:49:24;102091.09;;;19.34;36.42
62544;BME280;48597;49.030;1.822;2023-01-31T10:51:59;102086.16;;;19.35;36.36
62544;BME280;48597;49.030;1.822;2023-01-31T10:54:41;102076.34;;;19.36;36.45
62544;BME280;48597;49.030;1.822;2023-01-31T10:57:08;102081.25;;;19.35;36.39
62544;BME280;48597;49.030;1.822;2023-01-31T10:59:34;102084.50;;;19.37;36.37
62544;BME280;48597;49.030;1.822;2023-01-31T11:02:00;102089.81;;;19.39;36.42
62544;BME280;48597;49.030;1.822;2023-01-31T11:04:28;102087.78;;;19.39;36.45
62544;BME280;48597;49.030;1.822;2023-01-31T11:06:54;102085.72;;;19.40;36.42
62544;BME280;48597;49.030;1.822;2023-01-31T11:09:23;102089.41;;;19.40;36.56
62544;BME280;48597;49.030;1.822;2023-01-31T11:11:51;102092.66;;;19.42;36.37
62544;BME280;48597;49.030;1.822;2023-01-31T11:14:18;102082.03;;;19.43;36.43
62544;BME280;48597;49.030;1.822;2023-01-31T11:16:43;102079.19;;;19.43;36.37
62544;BME280;48597;49.030;1.822;2023-01-31T11:19:51;102064.47;;;19.44;36.54
62544;BME280;48597;49.030;1.822;2023-01-31T11:21:57;102061.19;;;19.46;36.40
62544;BME280;48597;49.030;1.822;2023-01-31T11:24:28;102052.19;;;19.47;36.56
62544;BME280;48597;49.030;1.822;2023-01-31T11:26:57;102046.47;;;19.47;36.52
62544;BME280;48597;49.030;1.822;2023-01-31T11:29:27;102050.94;;;19.48;36.43
62544;BME280;48597;49.030;1.822;2023-01-31T11:31:53;102038.28;;;19.49;36.37
62544;BME280;48597;49.030;1.822;2023-01-31T11:34:22;102039.50;;;19.48;36.47
62544;BME280;48597;49.030;1.822;2023-01-31T11:36:47;102026.03;;;19.49;36.37
62544;BME280;48597;49.030;1.822;2023-01-31T11:39:24;102014.59;;;19.49;36.50
62544;BME280;48597;49.030;1.822;2023-01-31T11:41:49;102017.03;;;19.50;36.41
62544;BME280;48597;49.030;1.822;2023-01-31T11:44:16;102017.84;;;19.51;36.58
62544;BME280;48597;49.030;1.822;2023-01-31T11:46:43;102014.59;;;19.52;36.59
62544;BME280;48597;49.030;1.822;2023-01-31T11:49:09;102012.97;;;19.51;36.37
62544;BME280;48597;49.030;1.822;2023-01-31T11:51:35;102008.88;;;19.52;36.53
62544;BME280;48597;49.030;1.822;2023-01-31T11:54:02;101999.88;;;19.54;36.56
62544;BME280;48597;49.030;1.822;2023-01-31T11:56:29;102000.69;;;19.54;36.55
62544;BME280;48597;49.030;1.822;2023-01-31T11:58:56;102002.31;;;19.55;36.41
62544;BME280;48597;49.030;1.822;2023-01-31T12:01:25;102000.69;;;19.54;36.57
62544;BME280;48597;49.030;1.822;2023-01-31T12:06:27;101990.06;;;19.55;36.67
62544;BME280;48597;49.030;1.822;2023-01-31T12:08:54;101990.88;;;19.55;36.54
62544;BME280;48597;49.030;1.822;2023-01-31T12:13:45;101985.53;;;19.57;36.55
62544;BME280;48597;49.030;1.822;2023-01-31T12:16:11;101990.03;;;19.58;36.55
62544;BME280;48597;49.030;1.822;2023-01-31T12:21:14;101978.97;;;19.60;36.68
62544;BME280;48597;49.030;1.822;2023-01-31T12:26:21;101995.34;;;19.60;36.49
62544;BME280;48597;49.030;1.822;2023-01-31T12:31:29;101983.91;;;19.60;36.68
62544;BME280;48597;49.030;1.822;2023-01-31T12:44:15;101962.19;;;19.62;36.62
62544;BME280;48597;49.030;1.822;2023-01-31T12:54:54;101939.72;;;19.65;36.70
62544;BME280;48597;49.030;1.822;2023-01-31T12:57:32;101938.47;;;19.66;36.73
62544;BME280;48597;49.030;1.822;2023-01-31T13:08:19;101933.16;;;19.68;36.97
62544;BME280;48597;49.030;1.822;2023-01-31T13:10:54;101925.38;;;19.68;36.77
62544;BME280;48597;49.030;1.822;2023-01-31T13:13:25;101913.94;;;19.68;36.77
62544;BME280;48597;49.030;1.822;2023-01-31T13:18:18;101902.50;;;19.68;36.96
62544;BME280;48597;49.030;1.822;2023-01-31T13:20:49;101894.31;;;19.70;36.88
62544;BME280;48597;49.030;1.822;2023-01-31T13:23:21;101892.25;;;19.71;36.82
62544;BME280;48597;49.030;1.822;2023-01-31T13:28:18;101889.41;;;19.71;36.82
62544;BME280;48597;49.030;1.822;2023-01-31T13:38:45;101900.75;;;19.78;36.85
62544;BME280;48597;49.030;1.822;2023-01-31T13:41:32;101885.97;;;19.83;36.73
62544;BME280;48597;49.030;1.822;2023-01-31T13:43:56;101880.59;;;19.88;36.78
62544;BME280;48597;49.030;1.822;2023-01-31T13:46:23;101868.25;;;19.95;36.55
62544;BME280;48597;49.030;1.822;2023-01-31T13:49:02;101879.59;;;20.02;36.48
62544;BME280;48597;49.030;1.822;2023-01-31T13:51:38;101890.56;;;20.11;36.37
62544;BME280;48597;49.030;1.822;2023-01-31T13:56:31;101894.53;;;20.20;36.23
62544;BME280;48597;49.030;1.822;2023-01-31T13:58:57;101897.41;;;20.17;36.35
62544;BME280;48597;49.030;1.822;2023-01-31T14:01:24;101891.47;;;20.01;36.53
62544;BME280;48597;49.030;1.822;2023-01-31T14:04:18;101899.78;;;19.91;36.79
62544;BME280;48597;49.030;1.822;2023-01-31T14:07:27;101899.00;;;19.87;36.88
62544;BME280;48597;49.030;1.822;2023-01-31T14:09:35;101897.81;;;19.85;36.99
62544;BME280;48597;49.030;1.822;2023-01-31T14:12:24;101899.06;;;19.84;36.92
62544;BME280;48597;49.030;1.822;2023-01-31T14:14:46;101903.97;;;19.83;37.06
62544;BME280;48597;49.030;1.822;2023-01-31T14:17:13;101899.47;;;19.82;37.06
62544;BME280;48597;49.030;1.822;2023-01-31T14:27:20;101912.16;;;19.81;37.26
62544;BME280;48597;49.030;1.822;2023-01-31T14:29:47;101922.38;;;19.82;37.19
62544;BME280;48597;49.030;1.822;2023-01-31T14:37:50;101921.97;;;19.80;37.15
62544;BME280;48597;49.030;1.822;2023-01-31T14:40:26;101919.94;;;19.81;37.14
62544;BME280;48597;49.030;1.822;2023-01-31T14:59:01;101910.94;;;19.82;37.15
62544;BME280;48597;49.030;1.822;2023-01-31T15:01:34;101910.94;;;19.82;37.32
62544;BME280;48597;49.030;1.822;2023-01-31T15:04:01;101915.03;;;19.81;37.18
62544;BME280;48597;49.030;1.822;2023-01-31T15:06:29;101904.00;;;19.80;37.27
62544;BME280;48597;49.030;1.822;2023-01-31T15:11:41;101909.28;;;19.81;37.26
62544;BME280;48597;49.030;1.822;2023-01-31T15:17:08;101905.63;;;19.81;37.29
62544;BME280;48597;49.030;1.822;2023-01-31T15:19:43;101910.09;;;19.82;37.25
62544;BME280;48597;49.030;1.822;2023-01-31T15:22:10;101919.50;;;19.82;37.32
62544;BME280;48597;49.030;1.822;2023-01-31T15:24:40;101897.84;;;19.81;37.40